sensor_id;sensor_type;location;lat;lon;timestamp;P1;durP1;ratioP1;P2;durP2;ratioP2
5776;SDS011;2914;42.668;23.346;2022-08-05T00:01:39;6.53;;;5.83;;
5776;SDS011;2914;42.668;23.346;2022-08-05T00:04:08;12.10;;;6.50;;
5776;SDS011;2914;42.668;23.346;2022-08-05T00:06:37;10.70;;;6.63;;
5776;SDS011;2914;42.668;23.346;2022-08-05T00:09:06;8.40;;;7.57;;
5776;SDS011;2914;42.668;23.346;2022-08-05T00:11:35;7.27;;;6.77;;
5776;SDS011;2914;42.668;23.346;2022-08-05T00:14:04;7.70;;;7.00;;
5776;SDS011;2914;42.668;23.346;2022-08-05T00:16:33;8.40;;;7.60;;
5776;SDS011;2914;42.668;23.346;2022-08-05T00:19:03;8.00;;;7.20;;
5776;SDS011;2914;42.668;23.346;2022-08-05T00:21:32;8.70;;;7.90;;
5776;SDS011;2914;42.668;23.346;2022-08-05T00:24:02;8.20;;;7.60;;
5776;SDS011;2914;42.668;23.346;2022-08-05T00:26:32;9.10;;;8.20;;
5776;SDS011;2914;42.668;23.346;2022-08-05T00:29:01;10.00;;;7.80;;
5776;SDS011;2914;42.668;23.346;2022-08-05T00:31:30;9.03;;;8.17;;
5776;SDS011;2914;42.668;23.346;2022-08-05T00:33:59;14.63;;;8.20;;
5776;SDS011;2914;42.668;23.346;2022-08-05T00:36:29;16.60;;;7.90;;
5776;SDS011;2914;42.668;23.346;2022-08-05T00:38:59;11.53;;;8.10;;
5776;SDS011;2914;42.668;23.346;2022-08-05T00:41:29;10.70;;;8.40;;
5776;SDS011;2914;42.668;23.346;2022-08-05T00:44:00;11.13;;;8.70;;
5776;SDS011;2914;42.668;23.346;2022-08-05T00:46:29;8.97;;;8.07;;
5776;SDS011;2914;42.668;23.346;2022-08-05T00:48:58;9.17;;;8.13;;
5776;SDS011;2914;42.668;23.346;2022-08-05T00:51:28;9.30;;;7.70;;
5776;SDS011;2914;42.668;23.346;2022-08-05T00:53:57;8.70;;;7.60;;
5776;SDS011;2914;42.668;23.346;2022-08-05T00:56:26;8.13;;;7.53;;
5776;SDS011;2914;42.668;23.346;2022-08-05T00:58:55;8.00;;;7.30;;
5776;SDS011;2914;42.668;23.346;2022-08-05T01:01:24;7.80;;;7.20;;
5776;SDS011;2914;42.668;23.346;2022-08-05T01:03:53;7.67;;;7.10;;
5776;SDS011;2914;42.668;23.346;2022-08-05T01:06:22;8.23;;;6.90;;
5776;SDS011;2914;42.668;23.346;2022-08-05T01:08:51;7.80;;;7.20;;
5776;SDS011;2914;42.668;23.346;2022-08-05T01:11:21;9.73;;;7.47;;
5776;SDS011;2914;42.668;23.346;2022-08-05T01:13:56;9.70;;;7.30;;
5776;SDS011;2914;42.668;23.346;2022-08-05T01:16:33;10.53;;;7.90;;
5776;SDS011;2914;42.668;23.346;2022-08-05T01:19:10;10.80;;;8.30;;
5776;SDS011;2914;42.668;23.346;2022-08-05T01:21:49;9.77;;;7.57;;
5776;SDS011;2914;42.668;23.346;2022-08-05T01:24:46;8.23;;;7.47;;
5776;SDS011;2914;42.668;23.346;2022-08-05T01:27:24;10.73;;;7.53;;
5776;SDS011;2914;42.668;23.346;2022-08-05T01:29:57;7.97;;;7.17;;
5776;SDS011;2914;42.668;23.346;2022-08-05T01:32:29;13.40;;;6.93;;
5776;SDS011;2914;42.668;23.346;2022-08-05T01:35:09;8.77;;;7.93;;
5776;SDS011;2914;42.668;23.346;2022-08-05T01:37:42;10.27;;;8.07;;
5776;SDS011;2914;42.668;23.346;2022-08-05T01:40:20;8.00;;;7.37;;
5776;SDS011;2914;42.668;23.346;2022-08-05T01:42:52;8.97;;;8.00;;
5776;SDS011;2914;42.668;23.346;2022-08-05T01:45:23;10.43;;;8.10;;
5776;SDS011;2914;42.668;23.346;2022-08-05T01:47:54;8.60;;;7.90;;
5776;SDS011;2914;42.668;23.346;2022-08-05T01:50:27;8.47;;;7.67;;
5776;SDS011;2914;42.668;23.346;2022-08-05T01:53:00;11.33;;;8.23;;
5776;SDS011;2914;42.668;23.346;2022-08-05T01:55:32;13.33;;;7.47;;
5776;SDS011;2914;42.668;23.346;2022-08-05T01:58:03;9.43;;;8.30;;
5776;SDS011;2914;42.668;23.346;2022-08-05T02:00:35;8.87;;;7.97;;
5776;SDS011;2914;42.668;23.346;2022-08-05T02:03:11;9.87;;;8.90;;
5776;SDS011;2914;42.668;23.346;2022-08-05T02:05:39;8.90;;;8.13;;
5776;SDS011;2914;42.668;23.346;2022-08-05T02:08:11;15.00;;;8.07;;
5776;SDS011;2914;42.668;23.346;2022-08-05T02:10:42;12.07;;;8.00;;
5776;SDS011;2914;42.668;23.346;2022-08-05T02:13:14;9.30;;;8.00;;
5776;SDS011;2914;42.668;23.346;2022-08-05T02:15:46;8.87;;;7.23;;
5776;SDS011;2914;42.668;23.346;2022-08-05T02:18:27;8.00;;;7.30;;
5776;SDS011;2914;42.668;23.346;2022-08-05T02:20:58;9.30;;;8.30;;
5776;SDS011;2914;42.668;23.346;2022-08-05T02:23:31;14.13;;;7.93;;
5776;SDS011;2914;42.668;23.346;2022-08-05T02:26:03;12.50;;;7.50;;
5776;SDS011;2914;42.668;23.346;2022-08-05T02:28:35;7.87;;;7.27;;
5776;SDS011;2914;42.668;23.346;2022-08-05T02:31:07;7.97;;;7.17;;
5776;SDS011;2914;42.668;23.346;2022-08-05T02:33:39;11.33;;;8.50;;
5776;SDS011;2914;42.668;23.346;2022-08-05T02:36:11;8.87;;;7.97;;
5776;SDS011;2914;42.668;23.346;2022-08-05T02:38:43;9.50;;;7.90;;
5776;SDS011;2914;42.668;23.346;2022-08-05T02:41:14;7.83;;;7.17;;
5776;SDS011;2914;42.668;23.346;2022-08-05T02:43:46;9.40;;;8.13;;
5776;SDS011;2914;42.668;23.346;2022-08-05T02:46:17;8.20;;;7.50;;
5776;SDS011;2914;42.668;23.346;2022-08-05T02:48:48;9.57;;;8.67;;
5776;SDS011;2914;42.668;23.346;2022-08-05T02:51:26;9.87;;;8.30;;
5776;SDS011;2914;42.668;23.346;2022-08-05T02:53:56;10.40;;;8.20;;
5776;SDS011;2914;42.668;23.346;2022-08-05T02:56:26;7.60;;;7.00;;
5776;SDS011;2914;42.668;23.346;2022-08-05T02:58:56;8.10;;;7.40;;
5776;SDS011;2914;42.668;23.346;2022-08-05T03:01:26;9.13;;;7.37;;
5776;SDS011;2914;42.668;23.346;2022-08-05T03:03:58;9.50;;;7.70;;
5776;SDS011;2914;42.668;23.346;2022-08-05T03:06:29;8.57;;;7.20;;
5776;SDS011;2914;42.668;23.346;2022-08-05T03:08:59;8.23;;;7.40;;
5776;SDS011;2914;42.668;23.346;2022-08-05T03:11:28;7.97;;;7.27;;
5776;SDS011;2914;42.668;23.346;2022-08-05T03:13:57;9.37;;;7.53;;
5776;SDS011;2914;42.668;23.346;2022-08-05T03:16:26;12.50;;;8.60;;
5776;SDS011;2914;42.668;23.346;2022-08-05T03:18:56;8.20;;;7.60;;
5776;SDS011;2914;42.668;23.346;2022-08-05T03:21:25;9.07;;;7.20;;
5776;SDS011;2914;42.668;23.346;2022-08-05T03:23:54;9.83;;;8.20;;
5776;SDS011;2914;42.668;23.346;2022-08-05T03:26:24;14.20;;;12.70;;
5776;SDS011;2914;42.668;23.346;2022-08-05T03:28:53;14.60;;;9.33;;
5776;SDS011;2914;42.668;23.346;2022-08-05T03:31:31;8.33;;;7.63;;
5776;SDS011;2914;42.668;23.346;2022-08-05T03:34:00;50.57;;;34.07;;
5776;SDS011;2914;42.668;23.346;2022-08-05T03:36:30;100.30;;;66.17;;
5776;SDS011;2914;42.668;23.346;2022-08-05T03:39:05;24.53;;;17.83;;
5776;SDS011;2914;42.668;23.346;2022-08-05T03:41:34;16.97;;;12.90;;
5776;SDS011;2914;42.668;23.346;2022-08-05T03:44:04;12.00;;;9.40;;
5776;SDS011;2914;42.668;23.346;2022-08-05T03:46:33;10.30;;;9.40;;
5776;SDS011;2914;42.668;23.346;2022-08-05T03:49:02;13.83;;;9.60;;
5776;SDS011;2914;42.668;23.346;2022-08-05T03:51:34;8.30;;;7.50;;
5776;SDS011;2914;42.668;23.346;2022-08-05T03:54:12;11.67;;;6.93;;
5776;SDS011;2914;42.668;23.346;2022-08-05T03:56:44;7.47;;;6.77;;
5776;SDS011;2914;42.668;23.346;2022-08-05T03:59:15;7.67;;;7.07;;
5776;SDS011;2914;42.668;23.346;2022-08-05T04:01:46;8.20;;;7.40;;
5776;SDS011;2914;42.668;23.346;2022-08-05T04:04:18;8.13;;;7.30;;
5776;SDS011;2914;42.668;23.346;2022-08-05T04:06:48;8.70;;;7.20;;
5776;SDS011;2914;42.668;23.346;2022-08-05T04:09:17;9.50;;;7.17;;
5776;SDS011;2914;42.668;23.346;2022-08-05T04:11:47;17.03;;;6.70;;
5776;SDS011;2914;42.668;23.346;2022-08-05T04:14:16;7.33;;;6.30;;
5776;SDS011;2914;42.668;23.346;2022-08-05T04:16:46;12.90;;;7.40;;
5776;SDS011;2914;42.668;23.346;2022-08-05T04:19:15;7.70;;;7.10;;
5776;SDS011;2914;42.668;23.346;2022-08-05T04:21:45;17.47;;;7.60;;
5776;SDS011;2914;42.668;23.346;2022-08-05T04:24:14;7.37;;;6.07;;
5776;SDS011;2914;42.668;23.346;2022-08-05T04:26:43;10.90;;;6.80;;
5776;SDS011;2914;42.668;23.346;2022-08-05T04:29:27;8.80;;;6.87;;
5776;SDS011;2914;42.668;23.346;2022-08-05T04:31:56;11.47;;;7.10;;
5776;SDS011;2914;42.668;23.346;2022-08-05T04:34:25;7.10;;;6.60;;
5776;SDS011;2914;42.668;23.346;2022-08-05T04:36:54;8.57;;;6.77;;
5776;SDS011;2914;42.668;23.346;2022-08-05T04:39:24;8.80;;;7.10;;
5776;SDS011;2914;42.668;23.346;2022-08-05T04:41:53;18.17;;;7.03;;
5776;SDS011;2914;42.668;23.346;2022-08-05T04:44:22;8.30;;;7.00;;
5776;SDS011;2914;42.668;23.346;2022-08-05T04:46:51;11.63;;;7.87;;
5776;SDS011;2914;42.668;23.346;2022-08-05T04:49:31;9.07;;;6.80;;
5776;SDS011;2914;42.668;23.346;2022-08-05T04:52:02;9.70;;;7.53;;
5776;SDS011;2914;42.668;23.346;2022-08-05T04:54:33;14.63;;;7.13;;
5776;SDS011;2914;42.668;23.346;2022-08-05T04:57:04;21.30;;;8.93;;
5776;SDS011;2914;42.668;23.346;2022-08-05T04:59:34;25.40;;;18.13;;
5776;SDS011;2914;42.668;23.346;2022-08-05T05:02:03;39.87;;;14.50;;
5776;SDS011;2914;42.668;23.346;2022-08-05T05:04:35;10.07;;;8.87;;
5776;SDS011;2914;42.668;23.346;2022-08-05T05:07:09;17.00;;;8.47;;
5776;SDS011;2914;42.668;23.346;2022-08-05T05:09:39;31.97;;;12.67;;
5776;SDS011;2914;42.668;23.346;2022-08-05T05:12:09;11.03;;;8.43;;
5776;SDS011;2914;42.668;23.346;2022-08-05T05:14:41;30.67;;;10.93;;
5776;SDS011;2914;42.668;23.346;2022-08-05T05:17:10;10.33;;;8.47;;
5776;SDS011;2914;42.668;23.346;2022-08-05T05:19:39;22.13;;;9.20;;
5776;SDS011;2914;42.668;23.346;2022-08-05T05:22:10;17.10;;;8.30;;
5776;SDS011;2914;42.668;23.346;2022-08-05T05:24:39;25.13;;;10.23;;
5776;SDS011;2914;42.668;23.346;2022-08-05T05:27:08;14.53;;;8.43;;
5776;SDS011;2914;42.668;23.346;2022-08-05T05:29:37;20.43;;;9.67;;
5776;SDS011;2914;42.668;23.346;2022-08-05T05:32:21;12.97;;;6.80;;
5776;SDS011;2914;42.668;23.346;2022-08-05T05:34:50;14.80;;;7.70;;
5776;SDS011;2914;42.668;23.346;2022-08-05T05:37:20;12.63;;;7.03;;
5776;SDS011;2914;42.668;23.346;2022-08-05T05:39:57;10.50;;;8.53;;
5776;SDS011;2914;42.668;23.346;2022-08-05T05:42:26;12.70;;;7.87;;
5776;SDS011;2914;42.668;23.346;2022-08-05T05:44:55;11.60;;;9.80;;
5776;SDS011;2914;42.668;23.346;2022-08-05T05:47:27;11.70;;;9.03;;
5776;SDS011;2914;42.668;23.346;2022-08-05T05:49:56;16.13;;;9.63;;
5776;SDS011;2914;42.668;23.346;2022-08-05T05:52:25;14.80;;;9.23;;
5776;SDS011;2914;42.668;23.346;2022-08-05T05:54:57;13.00;;;9.77;;
5776;SDS011;2914;42.668;23.346;2022-08-05T05:57:26;12.07;;;9.10;;
5776;SDS011;2914;42.668;23.346;2022-08-05T05:59:56;10.17;;;9.07;;
5776;SDS011;2914;42.668;23.346;2022-08-05T06:02:26;10.40;;;8.73;;
5776;SDS011;2914;42.668;23.346;2022-08-05T06:04:55;10.10;;;7.77;;
5776;SDS011;2914;42.668;23.346;2022-08-05T06:07:24;15.97;;;10.00;;
5776;SDS011;2914;42.668;23.346;2022-08-05T06:09:54;9.93;;;8.90;;
5776;SDS011;2914;42.668;23.346;2022-08-05T06:12:23;16.70;;;10.40;;
5776;SDS011;2914;42.668;23.346;2022-08-05T06:14:52;22.77;;;10.33;;
5776;SDS011;2914;42.668;23.346;2022-08-05T06:17:22;33.43;;;13.70;;
5776;SDS011;2914;42.668;23.346;2022-08-05T06:19:52;13.60;;;8.60;;
5776;SDS011;2914;42.668;23.346;2022-08-05T06:22:22;15.90;;;10.43;;
5776;SDS011;2914;42.668;23.346;2022-08-05T06:24:53;18.27;;;10.20;;
5776;SDS011;2914;42.668;23.346;2022-08-05T06:27:23;19.43;;;8.77;;
5776;SDS011;2914;42.668;23.346;2022-08-05T06:29:52;16.73;;;10.30;;
5776;SDS011;2914;42.668;23.346;2022-08-05T06:32:22;16.20;;;8.50;;
5776;SDS011;2914;42.668;23.346;2022-08-05T06:34:51;12.50;;;9.53;;
5776;SDS011;2914;42.668;23.346;2022-08-05T06:37:20;11.67;;;8.07;;
5776;SDS011;2914;42.668;23.346;2022-08-05T06:39:49;10.00;;;7.70;;
5776;SDS011;2914;42.668;23.346;2022-08-05T06:42:18;13.03;;;7.27;;
5776;SDS011;2914;42.668;23.346;2022-08-05T06:44:56;8.43;;;7.63;;
5776;SDS011;2914;42.668;23.346;2022-08-05T06:47:26;11.23;;;7.30;;
5776;SDS011;2914;42.668;23.346;2022-08-05T06:49:55;7.60;;;7.00;;
5776;SDS011;2914;42.668;23.346;2022-08-05T06:52:25;10.30;;;7.33;;
5776;SDS011;2914;42.668;23.346;2022-08-05T06:54:54;11.77;;;7.50;;
5776;SDS011;2914;42.668;23.346;2022-08-05T06:57:23;18.73;;;8.13;;
5776;SDS011;2914;42.668;23.346;2022-08-05T06:59:52;12.77;;;7.47;;
5776;SDS011;2914;42.668;23.346;2022-08-05T07:02:21;11.80;;;7.87;;
5776;SDS011;2914;42.668;23.346;2022-08-05T07:04:50;12.13;;;8.07;;
5776;SDS011;2914;42.668;23.346;2022-08-05T07:07:20;14.80;;;8.57;;
5776;SDS011;2914;42.668;23.346;2022-08-05T07:09:49;15.33;;;8.50;;
5776;SDS011;2914;42.668;23.346;2022-08-05T07:12:18;12.43;;;8.13;;
5776;SDS011;2914;42.668;23.346;2022-08-05T07:15:07;17.33;;;9.10;;
5776;SDS011;2914;42.668;23.346;2022-08-05T07:17:54;9.17;;;8.03;;
5776;SDS011;2914;42.668;23.346;2022-08-05T07:20:23;14.73;;;8.23;;
5776;SDS011;2914;42.668;23.346;2022-08-05T07:22:53;17.83;;;8.30;;
5776;SDS011;2914;42.668;23.346;2022-08-05T07:25:22;12.83;;;7.30;;
5776;SDS011;2914;42.668;23.346;2022-08-05T07:27:52;8.77;;;7.90;;
5776;SDS011;2914;42.668;23.346;2022-08-05T07:30:23;17.43;;;9.23;;
5776;SDS011;2914;42.668;23.346;2022-08-05T07:32:52;17.63;;;7.93;;
5776;SDS011;2914;42.668;23.346;2022-08-05T07:35:21;14.57;;;10.23;;
5776;SDS011;2914;42.668;23.346;2022-08-05T07:37:51;13.73;;;8.03;;
5776;SDS011;2914;42.668;23.346;2022-08-05T07:40:20;21.83;;;8.50;;
5776;SDS011;2914;42.668;23.346;2022-08-05T07:42:49;7.80;;;6.20;;
5776;SDS011;2914;42.668;23.346;2022-08-05T07:45:19;11.43;;;8.00;;
5776;SDS011;2914;42.668;23.346;2022-08-05T07:47:48;27.47;;;7.33;;
5776;SDS011;2914;42.668;23.346;2022-08-05T07:50:18;8.90;;;7.03;;
5776;SDS011;2914;42.668;23.346;2022-08-05T07:52:47;12.83;;;7.73;;
5776;SDS011;2914;42.668;23.346;2022-08-05T07:55:16;14.40;;;7.50;;
5776;SDS011;2914;42.668;23.346;2022-08-05T07:57:45;8.87;;;7.87;;
5776;SDS011;2914;42.668;23.346;2022-08-05T08:00:16;16.23;;;7.07;;
5776;SDS011;2914;42.668;23.346;2022-08-05T08:02:45;12.10;;;8.30;;
5776;SDS011;2914;42.668;23.346;2022-08-05T08:05:15;7.83;;;7.10;;
5776;SDS011;2914;42.668;23.346;2022-08-05T08:07:44;12.43;;;8.63;;
5776;SDS011;2914;42.668;23.346;2022-08-05T08:10:14;10.60;;;7.97;;
5776;SDS011;2914;42.668;23.346;2022-08-05T08:12:43;13.67;;;7.83;;
5776;SDS011;2914;42.668;23.346;2022-08-05T08:15:12;15.97;;;7.90;;
5776;SDS011;2914;42.668;23.346;2022-08-05T08:17:44;14.83;;;8.07;;
5776;SDS011;2914;42.668;23.346;2022-08-05T08:20:13;13.33;;;7.10;;
5776;SDS011;2914;42.668;23.346;2022-08-05T08:22:42;14.93;;;7.60;;
5776;SDS011;2914;42.668;23.346;2022-08-05T08:25:13;12.53;;;8.23;;
5776;SDS011;2914;42.668;23.346;2022-08-05T08:27:43;11.87;;;8.00;;
5776;SDS011;2914;42.668;23.346;2022-08-05T08:30:12;9.17;;;7.40;;
5776;SDS011;2914;42.668;23.346;2022-08-05T08:32:42;7.90;;;7.10;;
5776;SDS011;2914;42.668;23.346;2022-08-05T08:35:11;14.47;;;6.90;;
5776;SDS011;2914;42.668;23.346;2022-08-05T08:37:41;11.27;;;6.57;;
5776;SDS011;2914;42.668;23.346;2022-08-05T08:40:11;7.20;;;6.37;;
5776;SDS011;2914;42.668;23.346;2022-08-05T08:42:40;7.20;;;6.43;;
5776;SDS011;2914;42.668;23.346;2022-08-05T08:45:13;9.27;;;5.70;;
5776;SDS011;2914;42.668;23.346;2022-08-05T08:47:43;8.40;;;6.40;;
5776;SDS011;2914;42.668;23.346;2022-08-05T08:50:15;13.10;;;5.70;;
5776;SDS011;2914;42.668;23.346;2022-08-05T08:52:49;6.40;;;5.20;;
5776;SDS011;2914;42.668;23.346;2022-08-05T08:57:56;5.30;;;4.87;;
5776;SDS011;2914;42.668;23.346;2022-08-05T09:00:26;9.00;;;4.83;;
5776;SDS011;2914;42.668;23.346;2022-08-05T09:02:56;5.63;;;5.13;;
5776;SDS011;2914;42.668;23.346;2022-08-05T09:05:25;5.50;;;5.00;;
5776;SDS011;2914;42.668;23.346;2022-08-05T09:07:55;7.27;;;5.40;;
5776;SDS011;2914;42.668;23.346;2022-08-05T09:10:24;5.47;;;4.93;;
5776;SDS011;2914;42.668;23.346;2022-08-05T09:12:54;6.50;;;5.60;;
5776;SDS011;2914;42.668;23.346;2022-08-05T09:15:23;4.93;;;4.63;;
5776;SDS011;2914;42.668;23.346;2022-08-05T09:17:52;4.70;;;4.50;;
5776;SDS011;2914;42.668;23.346;2022-08-05T09:20:22;7.83;;;4.77;;
5776;SDS011;2914;42.668;23.346;2022-08-05T09:23:08;11.87;;;5.03;;
5776;SDS011;2914;42.668;23.346;2022-08-05T09:25:41;7.33;;;5.07;;
5776;SDS011;2914;42.668;23.346;2022-08-05T09:28:13;10.13;;;4.57;;
5776;SDS011;2914;42.668;23.346;2022-08-05T09:30:45;5.10;;;4.10;;
5776;SDS011;2914;42.668;23.346;2022-08-05T09:33:22;5.60;;;4.20;;
5776;SDS011;2914;42.668;23.346;2022-08-05T09:35:58;4.20;;;3.80;;
5776;SDS011;2914;42.668;23.346;2022-08-05T09:38:29;3.90;;;3.70;;
5776;SDS011;2914;42.668;23.346;2022-08-05T09:41:02;6.20;;;4.07;;
5776;SDS011;2914;42.668;23.346;2022-08-05T09:43:34;4.67;;;3.77;;
5776;SDS011;2914;42.668;23.346;2022-08-05T09:46:05;4.70;;;4.30;;
5776;SDS011;2914;42.668;23.346;2022-08-05T09:48:37;4.53;;;4.23;;
5776;SDS011;2914;42.668;23.346;2022-08-05T09:51:07;4.67;;;3.70;;
5776;SDS011;2914;42.668;23.346;2022-08-05T09:53:46;4.53;;;4.30;;
5776;SDS011;2914;42.668;23.346;2022-08-05T09:56:23;6.50;;;4.37;;
5776;SDS011;2914;42.668;23.346;2022-08-05T09:59:00;6.97;;;4.10;;
5776;SDS011;2914;42.668;23.346;2022-08-05T10:01:30;4.33;;;3.93;;
5776;SDS011;2914;42.668;23.346;2022-08-05T10:04:02;4.40;;;4.00;;
5776;SDS011;2914;42.668;23.346;2022-08-05T10:06:34;4.30;;;3.93;;
5776;SDS011;2914;42.668;23.346;2022-08-05T10:09:12;4.90;;;4.53;;
5776;SDS011;2914;42.668;23.346;2022-08-05T10:11:42;4.90;;;4.57;;
5776;SDS011;2914;42.668;23.346;2022-08-05T10:14:21;7.17;;;4.60;;
5776;SDS011;2914;42.668;23.346;2022-08-05T10:16:52;4.97;;;4.67;;
5776;SDS011;2914;42.668;23.346;2022-08-05T10:19:24;4.80;;;4.50;;
5776;SDS011;2914;42.668;23.346;2022-08-05T10:21:53;4.70;;;4.30;;
5776;SDS011;2914;42.668;23.346;2022-08-05T10:24:31;9.03;;;4.83;;
5776;SDS011;2914;42.668;23.346;2022-08-05T10:27:01;5.20;;;4.63;;
5776;SDS011;2914;42.668;23.346;2022-08-05T10:29:38;5.13;;;4.83;;
5776;SDS011;2914;42.668;23.346;2022-08-05T10:34:44;4.60;;;4.40;;
5776;SDS011;2914;42.668;23.346;2022-08-05T10:37:14;5.20;;;4.80;;
5776;SDS011;2914;42.668;23.346;2022-08-05T10:39:52;5.63;;;5.33;;
5776;SDS011;2914;42.668;23.346;2022-08-05T10:42:23;7.93;;;5.13;;
5776;SDS011;2914;42.668;23.346;2022-08-05T10:44:54;5.70;;;5.20;;
5776;SDS011;2914;42.668;23.346;2022-08-05T10:47:30;10.20;;;5.10;;
5776;SDS011;2914;42.668;23.346;2022-08-05T10:50:03;7.37;;;5.27;;
5776;SDS011;2914;42.668;23.346;2022-08-05T10:52:48;4.80;;;4.60;;
5776;SDS011;2914;42.668;23.346;2022-08-05T10:55:23;4.90;;;4.60;;
5776;SDS011;2914;42.668;23.346;2022-08-05T11:00:49;7.63;;;4.97;;
5776;SDS011;2914;42.668;23.346;2022-08-05T11:03:22;5.43;;;4.93;;
5776;SDS011;2914;42.668;23.346;2022-08-05T11:06:11;5.90;;;4.93;;
5776;SDS011;2914;42.668;23.346;2022-08-05T11:11:41;5.23;;;4.73;;
5776;SDS011;2914;42.668;23.346;2022-08-05T11:14:11;8.97;;;5.40;;
5776;SDS011;2914;42.668;23.346;2022-08-05T11:16:43;5.60;;;5.20;;
5776;SDS011;2914;42.668;23.346;2022-08-05T11:19:25;6.70;;;5.40;;
5776;SDS011;2914;42.668;23.346;2022-08-05T11:22:05;5.53;;;5.13;;
5776;SDS011;2914;42.668;23.346;2022-08-05T11:24:28;5.53;;;4.90;;
5776;SDS011;2914;42.668;23.346;2022-08-05T11:29:59;5.20;;;4.80;;
5776;SDS011;2914;42.668;23.346;2022-08-05T11:32:28;4.70;;;4.43;;
5776;SDS011;2914;42.668;23.346;2022-08-05T11:34:59;5.20;;;4.80;;
5776;SDS011;2914;42.668;23.346;2022-08-05T11:37:42;6.63;;;4.83;;
5776;SDS011;2914;42.668;23.346;2022-08-05T11:40:55;5.07;;;4.77;;
5776;SDS011;2914;42.668;23.346;2022-08-05T11:43:26;7.03;;;4.93;;
5776;SDS011;2914;42.668;23.346;2022-08-05T11:45:58;6.90;;;5.17;;
5776;SDS011;2914;42.668;23.346;2022-08-05T11:48:28;8.07;;;5.47;;
5776;SDS011;2914;42.668;23.346;2022-08-05T11:50:58;11.23;;;5.83;;
5776;SDS011;2914;42.668;23.346;2022-08-05T11:53:27;5.67;;;5.07;;
5776;SDS011;2914;42.668;23.346;2022-08-05T11:55:57;6.10;;;5.60;;
5776;SDS011;2914;42.668;23.346;2022-08-05T11:58:28;6.20;;;5.60;;
5776;SDS011;2914;42.668;23.346;2022-08-05T12:01:02;6.27;;;5.87;;
5776;SDS011;2914;42.668;23.346;2022-08-05T12:03:40;7.30;;;5.40;;
5776;SDS011;2914;42.668;23.346;2022-08-05T12:06:11;7.77;;;5.30;;
5776;SDS011;2914;42.668;23.346;2022-08-05T12:11:25;5.47;;;4.97;;
5776;SDS011;2914;42.668;23.346;2022-08-05T12:13:56;9.53;;;5.13;;
5776;SDS011;2914;42.668;23.346;2022-08-05T12:16:28;5.70;;;5.20;;
5776;SDS011;2914;42.668;23.346;2022-08-05T12:19:09;5.37;;;4.87;;
5776;SDS011;2914;42.668;23.346;2022-08-05T12:21:42;5.33;;;4.93;;
5776;SDS011;2914;42.668;23.346;2022-08-05T12:24:27;12.43;;;5.33;;
5776;SDS011;2914;42.668;23.346;2022-08-05T12:26:56;5.30;;;4.63;;
5776;SDS011;2914;42.668;23.346;2022-08-05T12:29:26;6.00;;;5.50;;
5776;SDS011;2914;42.668;23.346;2022-08-05T12:32:04;5.73;;;5.27;;
5776;SDS011;2914;42.668;23.346;2022-08-05T12:34:35;5.30;;;5.00;;
5776;SDS011;2914;42.668;23.346;2022-08-05T12:37:06;7.63;;;5.23;;
5776;SDS011;2914;42.668;23.346;2022-08-05T12:39:37;7.00;;;6.07;;
5776;SDS011;2914;42.668;23.346;2022-08-05T12:42:10;6.40;;;5.67;;
5776;SDS011;2914;42.668;23.346;2022-08-05T12:44:41;6.73;;;6.00;;
5776;SDS011;2914;42.668;23.346;2022-08-05T12:47:12;7.10;;;5.80;;
5776;SDS011;2914;42.668;23.346;2022-08-05T12:49:43;5.37;;;5.07;;
5776;SDS011;2914;42.668;23.346;2022-08-05T12:52:15;7.00;;;6.40;;
5776;SDS011;2914;42.668;23.346;2022-08-05T12:54:47;6.40;;;5.03;;
5776;SDS011;2914;42.668;23.346;2022-08-05T12:57:16;5.80;;;5.40;;
5776;SDS011;2914;42.668;23.346;2022-08-05T12:59:54;13.83;;;5.70;;
5776;SDS011;2914;42.668;23.346;2022-08-05T13:02:24;8.53;;;5.30;;
5776;SDS011;2914;42.668;23.346;2022-08-05T13:04:54;6.47;;;5.47;;
5776;SDS011;2914;42.668;23.346;2022-08-05T13:07:24;7.40;;;5.97;;
5776;SDS011;2914;42.668;23.346;2022-08-05T13:09:55;5.30;;;5.00;;
5776;SDS011;2914;42.668;23.346;2022-08-05T13:12:25;5.80;;;5.40;;
5776;SDS011;2914;42.668;23.346;2022-08-05T13:14:56;6.30;;;5.90;;
5776;SDS011;2914;42.668;23.346;2022-08-05T13:17:27;6.37;;;5.73;;
5776;SDS011;2914;42.668;23.346;2022-08-05T13:19:59;5.60;;;5.20;;
5776;SDS011;2914;42.668;23.346;2022-08-05T13:22:31;5.60;;;5.20;;
5776;SDS011;2914;42.668;23.346;2022-08-05T13:25:06;5.93;;;5.53;;
5776;SDS011;2914;42.668;23.346;2022-08-05T13:27:46;6.50;;;6.00;;
5776;SDS011;2914;42.668;23.346;2022-08-05T13:32:59;12.60;;;5.47;;
5776;SDS011;2914;42.668;23.346;2022-08-05T13:35:28;6.60;;;5.90;;
5776;SDS011;2914;42.668;23.346;2022-08-05T13:37:57;10.63;;;5.67;;
5776;SDS011;2914;42.668;23.346;2022-08-05T13:40:27;6.40;;;5.80;;
5776;SDS011;2914;42.668;23.346;2022-08-05T13:42:56;6.27;;;5.77;;
5776;SDS011;2914;42.668;23.346;2022-08-05T13:45:25;5.40;;;5.10;;
5776;SDS011;2914;42.668;23.346;2022-08-05T13:47:54;6.00;;;5.37;;
5776;SDS011;2914;42.668;23.346;2022-08-05T13:50:24;6.30;;;4.47;;
5776;SDS011;2914;42.668;23.346;2022-08-05T13:52:53;4.97;;;4.73;;
5776;SDS011;2914;42.668;23.346;2022-08-05T13:55:22;7.50;;;6.63;;
5776;SDS011;2914;42.668;23.346;2022-08-05T13:57:52;8.67;;;5.60;;
5776;SDS011;2914;42.668;23.346;2022-08-05T14:00:21;6.90;;;5.10;;
5776;SDS011;2914;42.668;23.346;2022-08-05T14:03:05;5.63;;;5.20;;
5776;SDS011;2914;42.668;23.346;2022-08-05T14:05:34;5.27;;;4.97;;
5776;SDS011;2914;42.668;23.346;2022-08-05T14:08:04;6.23;;;4.97;;
5776;SDS011;2914;42.668;23.346;2022-08-05T14:10:34;15.53;;;4.80;;
5776;SDS011;2914;42.668;23.346;2022-08-05T14:13:04;7.70;;;4.50;;
5776;SDS011;2914;42.668;23.346;2022-08-05T14:15:33;5.17;;;4.77;;
5776;SDS011;2914;42.668;23.346;2022-08-05T14:18:03;9.07;;;5.10;;
5776;SDS011;2914;42.668;23.346;2022-08-05T14:20:33;7.20;;;6.13;;
5776;SDS011;2914;42.668;23.346;2022-08-05T14:23:16;7.27;;;4.20;;
5776;SDS011;2914;42.668;23.346;2022-08-05T14:25:46;26.23;;;5.40;;
5776;SDS011;2914;42.668;23.346;2022-08-05T14:28:16;4.40;;;4.20;;
5776;SDS011;2914;42.668;23.346;2022-08-05T14:31:00;5.47;;;5.17;;
5776;SDS011;2914;42.668;23.346;2022-08-05T14:33:29;8.53;;;4.83;;
5776;SDS011;2914;42.668;23.346;2022-08-05T14:35:59;4.83;;;4.50;;
5776;SDS011;2914;42.668;23.346;2022-08-05T14:38:28;9.00;;;4.80;;
5776;SDS011;2914;42.668;23.346;2022-08-05T14:41:07;4.60;;;4.20;;
5776;SDS011;2914;42.668;23.346;2022-08-05T14:43:36;5.83;;;4.60;;
5776;SDS011;2914;42.668;23.346;2022-08-05T14:46:05;5.63;;;5.23;;
5776;SDS011;2914;42.668;23.346;2022-08-05T14:48:36;8.77;;;6.40;;
5776;SDS011;2914;42.668;23.346;2022-08-05T14:51:14;5.80;;;5.40;;
5776;SDS011;2914;42.668;23.346;2022-08-05T14:53:43;7.67;;;6.20;;
5776;SDS011;2914;42.668;23.346;2022-08-05T14:56:15;8.30;;;6.00;;
5776;SDS011;2914;42.668;23.346;2022-08-05T14:58:44;7.03;;;6.03;;
5776;SDS011;2914;42.668;23.346;2022-08-05T15:01:22;5.07;;;4.70;;
5776;SDS011;2914;42.668;23.346;2022-08-05T15:03:52;10.83;;;5.57;;
5776;SDS011;2914;42.668;23.346;2022-08-05T15:06:30;4.80;;;4.60;;
5776;SDS011;2914;42.668;23.346;2022-08-05T15:08:59;5.40;;;5.10;;
5776;SDS011;2914;42.668;23.346;2022-08-05T15:11:43;6.53;;;5.20;;
5776;SDS011;2914;42.668;23.346;2022-08-05T15:16:48;4.57;;;4.27;;
5776;SDS011;2914;42.668;23.346;2022-08-05T15:19:18;5.23;;;4.63;;
5776;SDS011;2914;42.668;23.346;2022-08-05T15:21:47;4.67;;;4.37;;
5776;SDS011;2914;42.668;23.346;2022-08-05T15:24:17;5.13;;;4.83;;
5776;SDS011;2914;42.668;23.346;2022-08-05T15:26:55;4.93;;;4.40;;
5776;SDS011;2914;42.668;23.346;2022-08-05T15:29:24;4.43;;;4.23;;
5776;SDS011;2914;42.668;23.346;2022-08-05T15:31:56;4.30;;;4.10;;
5776;SDS011;2914;42.668;23.346;2022-08-05T15:34:26;5.57;;;4.73;;
5776;SDS011;2914;42.668;23.346;2022-08-05T15:36:55;5.30;;;5.00;;
5776;SDS011;2914;42.668;23.346;2022-08-05T15:39:25;5.20;;;4.70;;
5776;SDS011;2914;42.668;23.346;2022-08-05T15:42:05;7.00;;;4.73;;
5776;SDS011;2914;42.668;23.346;2022-08-05T15:47:12;5.20;;;4.70;;